sensor_id;sensor_type;location;lat;lon;timestamp;P1;durP1;ratioP1;P2;durP2;ratioP2
49548;SDS011;35450;44.518;7.466;2023-04-25T00:00:48;22.58;;;10.98;;
49548;SDS011;35450;44.518;7.466;2023-04-25T00:03:51;3.65;;;1.83;;
49548;SDS011;35450;44.518;7.466;2023-04-25T00:06:55;2.17;;;1.08;;
49548;SDS011;35450;44.518;7.466;2023-04-25T00:10:00;2.35;;;0.70;;
49548;SDS011;35450;44.518;7.466;2023-04-25T00:13:04;2.38;;;0.70;;
49548;SDS011;35450;44.518;7.466;2023-04-25T00:16:09;3.55;;;0.60;;
49548;SDS011;35450;44.518;7.466;2023-04-25T00:19:13;0.75;;;0.50;;
49548;SDS011;35450;44.518;7.466;2023-04-25T00:22:18;0.93;;;0.40;;
49548;SDS011;35450;44.518;7.466;2023-04-25T00:25:22;3.08;;;0.60;;
49548;SDS011;35450;44.518;7.466;2023-04-25T00:28:26;1.75;;;0.30;;
49548;SDS011;35450;44.518;7.466;2023-04-25T00:31:30;1.92;;;0.57;;
49548;SDS011;35450;44.518;7.466;2023-04-25T00:34:34;1.67;;;0.40;;
49548;SDS011;35450;44.518;7.466;2023-04-25T00:37:38;0.63;;;0.20;;
49548;SDS011;35450;44.518;7.466;2023-04-25T00:40:43;2.00;;;0.68;;
49548;SDS011;35450;44.518;7.466;2023-04-25T00:43:47;2.92;;;0.40;;
49548;SDS011;35450;44.518;7.466;2023-04-25T00:46:54;0.63;;;0.50;;
49548;SDS011;35450;44.518;7.466;2023-04-25T00:49:59;0.90;;;0.30;;
49548;SDS011;35450;44.518;7.466;2023-04-25T00:53:02;0.55;;;0.30;;
49548;SDS011;35450;44.518;7.466;2023-04-25T00:56:07;4.18;;;0.45;;
49548;SDS011;35450;44.518;7.466;2023-04-25T00:59:11;0.77;;;0.35;;
49548;SDS011;35450;44.518;7.466;2023-04-25T01:02:16;1.33;;;0.32;;
49548;SDS011;35450;44.518;7.466;2023-04-25T01:05:21;0.93;;;0.28;;
49548;SDS011;35450;44.518;7.466;2023-04-25T01:08:25;1.40;;;0.40;;
49548;SDS011;35450;44.518;7.466;2023-04-25T01:11:29;4.60;;;0.52;;
49548;SDS011;35450;44.518;7.466;2023-04-25T01:14:33;2.13;;;1.08;;
49548;SDS011;35450;44.518;7.466;2023-04-25T01:17:37;0.85;;;0.50;;
49548;SDS011;35450;44.518;7.466;2023-04-25T01:20:43;7.85;;;0.50;;
49548;SDS011;35450;44.518;7.466;2023-04-25T01:23:49;16.35;;;0.82;;
49548;SDS011;35450;44.518;7.466;2023-04-25T01:26:54;16.98;;;1.17;;
49548;SDS011;35450;44.518;7.466;2023-04-25T01:30:01;13.05;;;0.85;;
49548;SDS011;35450;44.518;7.466;2023-04-25T01:33:07;4.53;;;0.60;;
49548;SDS011;35450;44.518;7.466;2023-04-25T01:36:12;2.35;;;0.40;;
49548;SDS011;35450;44.518;7.466;2023-04-25T01:39:18;5.45;;;0.77;;
49548;SDS011;35450;44.518;7.466;2023-04-25T01:42:22;4.60;;;0.40;;
49548;SDS011;35450;44.518;7.466;2023-04-25T01:45:26;5.40;;;0.60;;
49548;SDS011;35450;44.518;7.466;2023-04-25T01:48:30;0.60;;;0.38;;
49548;SDS011;35450;44.518;7.466;2023-04-25T01:51:34;2.67;;;0.40;;
49548;SDS011;35450;44.518;7.466;2023-04-25T01:54:39;0.60;;;0.50;;
49548;SDS011;35450;44.518;7.466;2023-04-25T01:57:47;0.90;;;0.35;;
49548;SDS011;35450;44.518;7.466;2023-04-25T02:00:51;1.02;;;0.40;;
49548;SDS011;35450;44.518;7.466;2023-04-25T02:03:55;1.27;;;0.40;;
49548;SDS011;35450;44.518;7.466;2023-04-25T02:07:08;2.25;;;0.57;;
49548;SDS011;35450;44.518;7.466;2023-04-25T02:10:26;3.58;;;0.50;;
49548;SDS011;35450;44.518;7.466;2023-04-25T02:13:45;3.03;;;0.45;;
49548;SDS011;35450;44.518;7.466;2023-04-25T02:16:56;2.47;;;0.50;;
49548;SDS011;35450;44.518;7.466;2023-04-25T02:20:00;2.58;;;0.57;;
49548;SDS011;35450;44.518;7.466;2023-04-25T02:23:04;1.65;;;0.55;;
49548;SDS011;35450;44.518;7.466;2023-04-25T02:26:08;2.80;;;0.52;;
49548;SDS011;35450;44.518;7.466;2023-04-25T02:29:14;3.17;;;0.60;;
49548;SDS011;35450;44.518;7.466;2023-04-25T02:32:19;0.82;;;0.50;;
49548;SDS011;35450;44.518;7.466;2023-04-25T02:35:24;3.25;;;0.50;;
49548;SDS011;35450;44.518;7.466;2023-04-25T02:38:30;0.80;;;0.50;;
49548;SDS011;35450;44.518;7.466;2023-04-25T02:41:35;2.15;;;0.50;;
49548;SDS011;35450;44.518;7.466;2023-04-25T02:44:39;8.02;;;0.60;;
49548;SDS011;35450;44.518;7.466;2023-04-25T02:47:43;2.83;;;0.50;;
49548;SDS011;35450;44.518;7.466;2023-04-25T02:50:48;3.75;;;0.55;;
49548;SDS011;35450;44.518;7.466;2023-04-25T02:53:52;0.90;;;0.73;;
49548;SDS011;35450;44.518;7.466;2023-04-25T02:56:56;1.92;;;0.55;;
49548;SDS011;35450;44.518;7.466;2023-04-25T03:00:04;1.85;;;0.50;;
49548;SDS011;35450;44.518;7.466;2023-04-25T03:03:09;2.22;;;0.60;;
49548;SDS011;35450;44.518;7.466;2023-04-25T03:06:13;2.67;;;0.60;;
49548;SDS011;35450;44.518;7.466;2023-04-25T03:09:17;1.48;;;0.40;;
49548;SDS011;35450;44.518;7.466;2023-04-25T03:12:21;1.05;;;0.30;;
49548;SDS011;35450;44.518;7.466;2023-04-25T03:15:25;2.33;;;0.60;;
49548;SDS011;35450;44.518;7.466;2023-04-25T03:18:30;1.65;;;0.60;;
49548;SDS011;35450;44.518;7.466;2023-04-25T03:21:34;2.28;;;0.43;;
49548;SDS011;35450;44.518;7.466;2023-04-25T03:24:38;3.42;;;0.50;;
49548;SDS011;35450;44.518;7.466;2023-04-25T03:27:42;1.15;;;0.40;;
49548;SDS011;35450;44.518;7.466;2023-04-25T03:30:46;1.35;;;0.40;;
49548;SDS011;35450;44.518;7.466;2023-04-25T03:33:50;9.43;;;0.70;;
49548;SDS011;35450;44.518;7.466;2023-04-25T03:36:56;2.38;;;0.38;;
49548;SDS011;35450;44.518;7.466;2023-04-25T03:40:01;0.77;;;0.50;;
49548;SDS011;35450;44.518;7.466;2023-04-25T03:43:24;1.58;;;0.50;;
49548;SDS011;35450;44.518;7.466;2023-04-25T03:46:34;2.67;;;0.50;;
49548;SDS011;35450;44.518;7.466;2023-04-25T03:49:38;0.60;;;0.47;;
49548;SDS011;35450;44.518;7.466;2023-04-25T03:52:43;0.60;;;0.30;;
49548;SDS011;35450;44.518;7.466;2023-04-25T03:55:47;2.90;;;1.05;;
49548;SDS011;35450;44.518;7.466;2023-04-25T03:58:51;1.75;;;0.75;;
49548;SDS011;35450;44.518;7.466;2023-04-25T04:01:57;2.97;;;0.40;;
49548;SDS011;35450;44.518;7.466;2023-04-25T04:05:01;1.60;;;0.45;;
49548;SDS011;35450;44.518;7.466;2023-04-25T04:08:06;2.03;;;0.50;;
49548;SDS011;35450;44.518;7.466;2023-04-25T04:11:12;6.18;;;0.55;;
49548;SDS011;35450;44.518;7.466;2023-04-25T04:14:16;2.05;;;0.60;;
49548;SDS011;35450;44.518;7.466;2023-04-25T04:17:22;0.95;;;0.47;;
49548;SDS011;35450;44.518;7.466;2023-04-25T04:20:28;4.07;;;0.40;;
49548;SDS011;35450;44.518;7.466;2023-04-25T04:23:34;1.15;;;0.38;;
49548;SDS011;35450;44.518;7.466;2023-04-25T04:26:39;3.53;;;1.00;;
49548;SDS011;35450;44.518;7.466;2023-04-25T04:29:49;2.28;;;0.82;;
49548;SDS011;35450;44.518;7.466;2023-04-25T04:33:08;3.20;;;0.50;;
49548;SDS011;35450;44.518;7.466;2023-04-25T04:36:13;2.25;;;0.60;;
49548;SDS011;35450;44.518;7.466;2023-04-25T04:39:17;0.55;;;0.40;;
49548;SDS011;35450;44.518;7.466;2023-04-25T04:42:33;3.60;;;0.70;;
49548;SDS011;35450;44.518;7.466;2023-04-25T04:45:56;2.15;;;0.73;;
49548;SDS011;35450;44.518;7.466;2023-04-25T04:49:18;3.30;;;0.50;;
49548;SDS011;35450;44.518;7.466;2023-04-25T04:52:52;2.58;;;0.68;;
49548;SDS011;35450;44.518;7.466;2023-04-25T04:56:12;3.53;;;1.70;;
49548;SDS011;35450;44.518;7.466;2023-04-25T04:59:30;3.95;;;1.30;;
49548;SDS011;35450;44.518;7.466;2023-04-25T05:02:55;4.47;;;1.25;;
49548;SDS011;35450;44.518;7.466;2023-04-25T05:06:19;2.25;;;0.98;;
49548;SDS011;35450;44.518;7.466;2023-04-25T05:09:42;4.13;;;1.00;;
49548;SDS011;35450;44.518;7.466;2023-04-25T05:13:18;4.15;;;0.50;;
49548;SDS011;35450;44.518;7.466;2023-04-25T05:16:42;10.25;;;0.88;;
49548;SDS011;35450;44.518;7.466;2023-04-25T05:20:06;3.45;;;0.82;;
49548;SDS011;35450;44.518;7.466;2023-04-25T05:27:08;3.22;;;0.93;;
49548;SDS011;35450;44.518;7.466;2023-04-25T05:30:42;2.40;;;0.57;;
49548;SDS011;35450;44.518;7.466;2023-04-25T05:33:52;3.80;;;0.55;;
49548;SDS011;35450;44.518;7.466;2023-04-25T05:36:57;31.10;;;1.73;;
49548;SDS011;35450;44.518;7.466;2023-04-25T05:40:02;10.77;;;1.85;;
49548;SDS011;35450;44.518;7.466;2023-04-25T05:43:37;8.10;;;1.02;;
49548;SDS011;35450;44.518;7.466;2023-04-25T05:47:04;8.13;;;1.10;;
49548;SDS011;35450;44.518;7.466;2023-04-25T05:50:29;3.90;;;1.05;;
49548;SDS011;35450;44.518;7.466;2023-04-25T05:53:38;5.15;;;1.80;;
49548;SDS011;35450;44.518;7.466;2023-04-25T05:56:43;2.40;;;1.20;;
49548;SDS011;35450;44.518;7.466;2023-04-25T05:59:47;3.70;;;1.20;;
49548;SDS011;35450;44.518;7.466;2023-04-25T06:02:51;8.85;;;1.30;;
49548;SDS011;35450;44.518;7.466;2023-04-25T06:05:56;8.25;;;1.20;;
49548;SDS011;35450;44.518;7.466;2023-04-25T06:09:00;3.55;;;1.67;;
49548;SDS011;35450;44.518;7.466;2023-04-25T06:12:04;3.35;;;0.88;;
49548;SDS011;35450;44.518;7.466;2023-04-25T06:15:10;2.70;;;1.35;;
49548;SDS011;35450;44.518;7.466;2023-04-25T06:18:14;3.03;;;1.40;;
49548;SDS011;35450;44.518;7.466;2023-04-25T06:21:17;5.75;;;2.13;;
49548;SDS011;35450;44.518;7.466;2023-04-25T06:24:21;6.63;;;2.28;;
49548;SDS011;35450;44.518;7.466;2023-04-25T06:27:25;6.55;;;1.83;;
49548;SDS011;35450;44.518;7.466;2023-04-25T06:30:29;10.85;;;2.60;;
49548;SDS011;35450;44.518;7.466;2023-04-25T06:33:39;6.63;;;1.42;;
49548;SDS011;35450;44.518;7.466;2023-04-25T06:36:44;11.77;;;2.22;;
49548;SDS011;35450;44.518;7.466;2023-04-25T06:39:51;3.25;;;1.02;;
49548;SDS011;35450;44.518;7.466;2023-04-25T06:42:55;3.47;;;1.23;;
49548;SDS011;35450;44.518;7.466;2023-04-25T06:46:31;3.50;;;1.17;;
49548;SDS011;35450;44.518;7.466;2023-04-25T06:49:36;2.47;;;0.85;;
49548;SDS011;35450;44.518;7.466;2023-04-25T06:52:40;1.17;;;0.85;;
49548;SDS011;35450;44.518;7.466;2023-04-25T06:55:44;4.10;;;0.90;;
49548;SDS011;35450;44.518;7.466;2023-04-25T06:58:57;3.75;;;1.25;;
49548;SDS011;35450;44.518;7.466;2023-04-25T07:02:12;3.33;;;0.85;;
49548;SDS011;35450;44.518;7.466;2023-04-25T07:05:16;1.38;;;0.80;;
49548;SDS011;35450;44.518;7.466;2023-04-25T07:08:20;5.68;;;1.00;;
49548;SDS011;35450;44.518;7.466;2023-04-25T07:11:24;2.25;;;1.10;;
49548;SDS011;35450;44.518;7.466;2023-04-25T07:14:29;2.53;;;1.20;;
49548;SDS011;35450;44.518;7.466;2023-04-25T07:17:34;2.22;;;0.80;;
49548;SDS011;35450;44.518;7.466;2023-04-25T07:20:38;3.45;;;0.55;;
49548;SDS011;35450;44.518;7.466;2023-04-25T07:23:42;1.77;;;0.57;;
49548;SDS011;35450;44.518;7.466;2023-04-25T07:26:51;0.98;;;0.50;;
49548;SDS011;35450;44.518;7.466;2023-04-25T07:30:27;3.35;;;0.55;;
49548;SDS011;35450;44.518;7.466;2023-04-25T07:33:33;0.80;;;0.60;;
49548;SDS011;35450;44.518;7.466;2023-04-25T07:36:37;2.83;;;0.75;;
49548;SDS011;35450;44.518;7.466;2023-04-25T07:39:41;3.28;;;0.93;;
49548;SDS011;35450;44.518;7.466;2023-04-25T07:42:45;2.88;;;1.20;;
49548;SDS011;35450;44.518;7.466;2023-04-25T07:45:53;3.75;;;1.00;;
49548;SDS011;35450;44.518;7.466;2023-04-25T07:48:58;4.30;;;1.15;;
49548;SDS011;35450;44.518;7.466;2023-04-25T07:52:03;2.72;;;1.13;;
49548;SDS011;35450;44.518;7.466;2023-04-25T07:55:11;4.00;;;1.15;;
49548;SDS011;35450;44.518;7.466;2023-04-25T07:58:27;2.60;;;1.30;;
49548;SDS011;35450;44.518;7.466;2023-04-25T08:01:35;6.90;;;1.45;;
49548;SDS011;35450;44.518;7.466;2023-04-25T08:04:41;3.80;;;1.17;;
49548;SDS011;35450;44.518;7.466;2023-04-25T08:07:47;2.38;;;1.05;;
49548;SDS011;35450;44.518;7.466;2023-04-25T08:10:51;5.05;;;1.48;;
49548;SDS011;35450;44.518;7.466;2023-04-25T08:13:55;2.63;;;1.20;;
49548;SDS011;35450;44.518;7.466;2023-04-25T08:16:59;10.85;;;1.95;;
49548;SDS011;35450;44.518;7.466;2023-04-25T08:20:05;2.42;;;1.00;;
49548;SDS011;35450;44.518;7.466;2023-04-25T08:23:11;4.50;;;1.30;;
49548;SDS011;35450;44.518;7.466;2023-04-25T08:26:27;4.72;;;1.40;;
49548;SDS011;35450;44.518;7.466;2023-04-25T08:29:32;11.43;;;2.60;;
49548;SDS011;35450;44.518;7.466;2023-04-25T08:32:37;5.20;;;2.05;;
49548;SDS011;35450;44.518;7.466;2023-04-25T08:36:02;3.58;;;1.77;;
49548;SDS011;35450;44.518;7.466;2023-04-25T08:39:08;5.60;;;1.75;;
49548;SDS011;35450;44.518;7.466;2023-04-25T08:42:21;8.25;;;1.30;;
49548;SDS011;35450;44.518;7.466;2023-04-25T08:45:27;5.53;;;1.80;;
49548;SDS011;35450;44.518;7.466;2023-04-25T08:48:35;5.68;;;1.80;;
49548;SDS011;35450;44.518;7.466;2023-04-25T08:51:44;4.95;;;2.30;;
49548;SDS011;35450;44.518;7.466;2023-04-25T08:54:56;2.90;;;1.45;;
49548;SDS011;35450;44.518;7.466;2023-04-25T08:58:01;6.55;;;1.98;;
49548;SDS011;35450;44.518;7.466;2023-04-25T09:01:06;5.43;;;2.40;;
49548;SDS011;35450;44.518;7.466;2023-04-25T09:04:18;4.18;;;2.20;;
49548;SDS011;35450;44.518;7.466;2023-04-25T09:07:23;6.50;;;2.38;;
49548;SDS011;35450;44.518;7.466;2023-04-25T09:10:28;4.13;;;2.55;;
49548;SDS011;35450;44.518;7.466;2023-04-25T09:13:35;4.00;;;2.42;;
49548;SDS011;35450;44.518;7.466;2023-04-25T09:16:59;8.05;;;2.65;;
49548;SDS011;35450;44.518;7.466;2023-04-25T09:20:16;5.50;;;2.60;;
49548;SDS011;35450;44.518;7.466;2023-04-25T09:23:20;6.65;;;2.28;;
49548;SDS011;35450;44.518;7.466;2023-04-25T09:26:25;4.25;;;2.63;;
49548;SDS011;35450;44.518;7.466;2023-04-25T09:29:30;7.63;;;3.25;;
49548;SDS011;35450;44.518;7.466;2023-04-25T09:32:36;5.82;;;2.60;;
49548;SDS011;35450;44.518;7.466;2023-04-25T09:35:42;10.77;;;2.35;;
49548;SDS011;35450;44.518;7.466;2023-04-25T09:38:54;6.30;;;2.13;;
49548;SDS011;35450;44.518;7.466;2023-04-25T09:42:21;3.03;;;1.60;;
49548;SDS011;35450;44.518;7.466;2023-04-25T09:45:29;7.13;;;1.85;;
49548;SDS011;35450;44.518;7.466;2023-04-25T09:48:35;6.07;;;1.85;;
49548;SDS011;35450;44.518;7.466;2023-04-25T09:51:40;8.25;;;2.35;;
49548;SDS011;35450;44.518;7.466;2023-04-25T09:54:47;6.55;;;1.80;;
49548;SDS011;35450;44.518;7.466;2023-04-25T09:57:57;6.60;;;2.38;;
49548;SDS011;35450;44.518;7.466;2023-04-25T10:01:11;5.53;;;2.17;;
49548;SDS011;35450;44.518;7.466;2023-04-25T10:04:32;3.70;;;2.20;;
49548;SDS011;35450;44.518;7.466;2023-04-25T10:07:50;4.53;;;1.60;;
49548;SDS011;35450;44.518;7.466;2023-04-25T10:10:55;5.55;;;2.40;;
49548;SDS011;35450;44.518;7.466;2023-04-25T10:14:04;2.85;;;1.38;;
49548;SDS011;35450;44.518;7.466;2023-04-25T10:17:09;3.85;;;1.65;;
49548;SDS011;35450;44.518;7.466;2023-04-25T10:20:15;5.93;;;1.63;;
49548;SDS011;35450;44.518;7.466;2023-04-25T10:23:19;2.03;;;1.70;;
49548;SDS011;35450;44.518;7.466;2023-04-25T10:26:24;5.88;;;1.98;;
49548;SDS011;35450;44.518;7.466;2023-04-25T10:29:28;6.25;;;1.30;;
49548;SDS011;35450;44.518;7.466;2023-04-25T10:32:32;3.55;;;1.33;;
49548;SDS011;35450;44.518;7.466;2023-04-25T10:35:37;5.28;;;1.73;;
49548;SDS011;35450;44.518;7.466;2023-04-25T10:38:42;1.95;;;0.85;;
49548;SDS011;35450;44.518;7.466;2023-04-25T10:41:56;4.97;;;1.42;;
49548;SDS011;35450;44.518;7.466;2023-04-25T10:45:02;5.20;;;1.17;;
49548;SDS011;35450;44.518;7.466;2023-04-25T10:48:30;3.90;;;1.30;;
49548;SDS011;35450;44.518;7.466;2023-04-25T10:51:34;5.82;;;1.50;;
49548;SDS011;35450;44.518;7.466;2023-04-25T10:54:40;5.55;;;1.58;;
49548;SDS011;35450;44.518;7.466;2023-04-25T10:57:50;3.75;;;1.52;;
49548;SDS011;35450;44.518;7.466;2023-04-25T11:00:55;2.53;;;1.58;;
49548;SDS011;35450;44.518;7.466;2023-04-25T11:03:59;6.38;;;1.90;;
49548;SDS011;35450;44.518;7.466;2023-04-25T11:10:40;3.10;;;1.30;;
49548;SDS011;35450;44.518;7.466;2023-04-25T11:13:48;3.10;;;1.70;;
49548;SDS011;35450;44.518;7.466;2023-04-25T11:16:54;5.47;;;1.48;;
49548;SDS011;35450;44.518;7.466;2023-04-25T11:20:01;3.78;;;1.67;;
49548;SDS011;35450;44.518;7.466;2023-04-25T11:23:10;6.13;;;1.77;;
49548;SDS011;35450;44.518;7.466;2023-04-25T11:26:14;4.50;;;1.90;;
49548;SDS011;35450;44.518;7.466;2023-04-25T11:29:21;2.45;;;1.70;;
49548;SDS011;35450;44.518;7.466;2023-04-25T11:32:26;4.22;;;1.92;;
49548;SDS011;35450;44.518;7.466;2023-04-25T11:35:30;6.45;;;2.08;;
49548;SDS011;35450;44.518;7.466;2023-04-25T11:38:34;3.72;;;1.90;;
49548;SDS011;35450;44.518;7.466;2023-04-25T11:41:38;13.43;;;2.83;;
49548;SDS011;35450;44.518;7.466;2023-04-25T11:44:43;6.13;;;2.10;;
49548;SDS011;35450;44.518;7.466;2023-04-25T11:47:47;8.57;;;2.20;;
49548;SDS011;35450;44.518;7.466;2023-04-25T11:50:53;4.30;;;2.22;;
49548;SDS011;35450;44.518;7.466;2023-04-25T11:53:58;5.22;;;2.10;;
49548;SDS011;35450;44.518;7.466;2023-04-25T11:57:03;4.93;;;2.53;;
49548;SDS011;35450;44.518;7.466;2023-04-25T12:00:08;4.95;;;2.20;;
49548;SDS011;35450;44.518;7.466;2023-04-25T12:03:17;9.73;;;2.03;;
49548;SDS011;35450;44.518;7.466;2023-04-25T12:06:25;3.95;;;2.22;;
49548;SDS011;35450;44.518;7.466;2023-04-25T12:09:31;4.75;;;1.92;;
49548;SDS011;35450;44.518;7.466;2023-04-25T12:12:36;7.38;;;2.25;;
49548;SDS011;35450;44.518;7.466;2023-04-25T12:15:41;4.15;;;2.63;;
49548;SDS011;35450;44.518;7.466;2023-04-25T12:18:45;5.57;;;3.08;;
49548;SDS011;35450;44.518;7.466;2023-04-25T12:21:49;5.30;;;2.53;;
49548;SDS011;35450;44.518;7.466;2023-04-25T12:24:54;5.53;;;2.70;;
49548;SDS011;35450;44.518;7.466;2023-04-25T12:31:23;8.73;;;3.90;;
49548;SDS011;35450;44.518;7.466;2023-04-25T12:34:27;6.78;;;4.63;;
49548;SDS011;35450;44.518;7.466;2023-04-25T12:37:31;7.20;;;4.88;;
49548;SDS011;35450;44.518;7.466;2023-04-25T12:40:36;5.28;;;3.88;;
49548;SDS011;35450;44.518;7.466;2023-04-25T12:43:39;7.18;;;3.70;;
49548;SDS011;35450;44.518;7.466;2023-04-25T12:46:43;8.07;;;4.00;;
49548;SDS011;35450;44.518;7.466;2023-04-25T12:49:48;10.20;;;3.45;;
49548;SDS011;35450;44.518;7.466;2023-04-25T12:52:52;6.43;;;3.88;;
49548;SDS011;35450;44.518;7.466;2023-04-25T12:55:56;4.65;;;3.22;;
49548;SDS011;35450;44.518;7.466;2023-04-25T12:59:00;4.75;;;2.47;;
49548;SDS011;35450;44.518;7.466;2023-04-25T13:02:05;4.10;;;2.45;;
49548;SDS011;35450;44.518;7.466;2023-04-25T13:05:09;7.30;;;2.33;;
49548;SDS011;35450;44.518;7.466;2023-04-25T13:08:14;4.07;;;2.22;;
49548;SDS011;35450;44.518;7.466;2023-04-25T13:11:18;4.72;;;2.10;;
49548;SDS011;35450;44.518;7.466;2023-04-25T13:14:23;7.85;;;2.10;;
49548;SDS011;35450;44.518;7.466;2023-04-25T13:17:26;8.02;;;2.05;;
49548;SDS011;35450;44.518;7.466;2023-04-25T13:20:30;7.70;;;2.20;;
49548;SDS011;35450;44.518;7.466;2023-04-25T13:23:34;3.17;;;1.80;;
49548;SDS011;35450;44.518;7.466;2023-04-25T13:26:39;2.55;;;1.73;;
49548;SDS011;35450;44.518;7.466;2023-04-25T13:29:42;8.73;;;2.30;;
49548;SDS011;35450;44.518;7.466;2023-04-25T13:32:46;5.65;;;1.70;;
49548;SDS011;35450;44.518;7.466;2023-04-25T13:35:51;3.42;;;1.60;;
49548;SDS011;35450;44.518;7.466;2023-04-25T13:38:59;3.25;;;1.50;;
49548;SDS011;35450;44.518;7.466;2023-04-25T13:42:03;4.82;;;1.70;;
49548;SDS011;35450;44.518;7.466;2023-04-25T13:45:07;7.28;;;2.22;;
49548;SDS011;35450;44.518;7.466;2023-04-25T13:48:11;4.78;;;1.40;;
49548;SDS011;35450;44.518;7.466;2023-04-25T13:51:15;4.28;;;1.77;;
49548;SDS011;35450;44.518;7.466;2023-04-25T13:54:20;3.65;;;1.83;;
49548;SDS011;35450;44.518;7.466;2023-04-25T13:57:25;3.35;;;1.83;;
49548;SDS011;35450;44.518;7.466;2023-04-25T14:00:29;2.17;;;1.58;;
49548;SDS011;35450;44.518;7.466;2023-04-25T14:03:32;4.00;;;1.75;;
49548;SDS011;35450;44.518;7.466;2023-04-25T14:06:36;5.18;;;1.92;;
49548;SDS011;35450;44.518;7.466;2023-04-25T14:09:40;3.10;;;1.40;;
49548;SDS011;35450;44.518;7.466;2023-04-25T14:12:44;8.02;;;1.80;;
49548;SDS011;35450;44.518;7.466;2023-04-25T14:15:49;3.92;;;2.08;;
49548;SDS011;35450;44.518;7.466;2023-04-25T14:18:53;9.57;;;2.50;;
49548;SDS011;35450;44.518;7.466;2023-04-25T14:21:57;4.03;;;2.05;;
49548;SDS011;35450;44.518;7.466;2023-04-25T14:25:01;5.20;;;2.33;;
49548;SDS011;35450;44.518;7.466;2023-04-25T14:28:06;3.30;;;1.70;;
49548;SDS011;35450;44.518;7.466;2023-04-25T14:31:10;4.00;;;2.38;;
49548;SDS011;35450;44.518;7.466;2023-04-25T14:34:14;2.80;;;1.98;;
49548;SDS011;35450;44.518;7.466;2023-04-25T14:37:18;3.22;;;2.17;;
49548;SDS011;35450;44.518;7.466;2023-04-25T14:40:23;5.95;;;2.70;;
49548;SDS011;35450;44.518;7.466;2023-04-25T14:43:27;4.78;;;2.40;;
49548;SDS011;35450;44.518;7.466;2023-04-25T14:46:31;6.95;;;2.65;;
49548;SDS011;35450;44.518;7.466;2023-04-25T14:49:35;3.95;;;2.10;;
49548;SDS011;35450;44.518;7.466;2023-04-25T14:52:39;6.93;;;2.83;;
49548;SDS011;35450;44.518;7.466;2023-04-25T14:55:43;3.95;;;2.65;;
49548;SDS011;35450;44.518;7.466;2023-04-25T14:58:47;8.80;;;3.22;;
49548;SDS011;35450;44.518;7.466;2023-04-25T15:01:51;6.72;;;2.40;;
49548;SDS011;35450;44.518;7.466;2023-04-25T15:04:55;5.00;;;3.28;;
49548;SDS011;35450;44.518;7.466;2023-04-25T15:07:59;6.60;;;2.40;;
49548;SDS011;35450;44.518;7.466;2023-04-25T15:11:03;5.13;;;2.53;;
49548;SDS011;35450;44.518;7.466;2023-04-25T15:14:08;4.25;;;2.50;;
49548;SDS011;35450;44.518;7.466;2023-04-25T15:17:11;5.88;;;2.60;;
49548;SDS011;35450;44.518;7.466;2023-04-25T15:20:17;3.42;;;2.20;;
49548;SDS011;35450;44.518;7.466;2023-04-25T15:23:21;6.78;;;2.88;;
49548;SDS011;35450;44.518;7.466;2023-04-25T15:26:26;3.70;;;2.30;;
49548;SDS011;35450;44.518;7.466;2023-04-25T15:29:30;5.68;;;2.50;;
49548;SDS011;35450;44.518;7.466;2023-04-25T15:32:34;6.72;;;2.53;;
49548;SDS011;35450;44.518;7.466;2023-04-25T15:35:38;6.38;;;2.33;;
49548;SDS011;35450;44.518;7.466;2023-04-25T15:38:42;5.68;;;2.85;;
49548;SDS011;35450;44.518;7.466;2023-04-25T15:41:46;11.00;;;3.13;;
49548;SDS011;35450;44.518;7.466;2023-04-25T15:44:50;5.07;;;3.35;;
49548;SDS011;35450;44.518;7.466;2023-04-25T15:47:55;9.65;;;2.85;;
49548;SDS011;35450;44.518;7.466;2023-04-25T15:50:59;7.63;;;2.78;;
49548;SDS011;35450;44.518;7.466;2023-04-25T15:54:03;3.85;;;2.15;;
49548;SDS011;35450;44.518;7.466;2023-04-25T15:57:08;4.90;;;2.05;;
49548;SDS011;35450;44.518;7.466;2023-04-25T16:00:15;5.95;;;2.22;;
49548;SDS011;35450;44.518;7.466;2023-04-25T16:03:21;4.60;;;2.30;;
49548;SDS011;35450;44.518;7.466;2023-04-25T16:06:25;8.10;;;3.70;;
49548;SDS011;35450;44.518;7.466;2023-04-25T16:09:30;15.45;;;4.15;;
49548;SDS011;35450;44.518;7.466;2023-04-25T16:12:34;6.60;;;1.63;;
49548;SDS011;35450;44.518;7.466;2023-04-25T16:15:39;3.45;;;1.33;;
49548;SDS011;35450;44.518;7.466;2023-04-25T16:18:43;2.75;;;0.80;;
49548;SDS011;35450;44.518;7.466;2023-04-25T16:21:47;2.45;;;0.75;;
49548;SDS011;35450;44.518;7.466;2023-04-25T16:24:51;2.15;;;0.73;;
49548;SDS011;35450;44.518;7.466;2023-04-25T16:27:55;1.70;;;0.60;;
49548;SDS011;35450;44.518;7.466;2023-04-25T16:30:59;10.43;;;1.42;;
49548;SDS011;35450;44.518;7.466;2023-04-25T16:34:04;3.67;;;1.00;;
49548;SDS011;35450;44.518;7.466;2023-04-25T16:37:07;7.65;;;1.30;;
49548;SDS011;35450;44.518;7.466;2023-04-25T16:40:12;2.70;;;0.90;;
49548;SDS011;35450;44.518;7.466;2023-04-25T16:43:16;5.80;;;1.00;;
49548;SDS011;35450;44.518;7.466;2023-04-25T16:46:23;5.32;;;1.25;;
49548;SDS011;35450;44.518;7.466;2023-04-25T16:49:27;3.85;;;1.40;;
49548;SDS011;35450;44.518;7.466;2023-04-25T16:52:31;5.30;;;0.70;;
49548;SDS011;35450;44.518;7.466;2023-04-25T16:55:35;4.20;;;1.02;;
49548;SDS011;35450;44.518;7.466;2023-04-25T16:58:39;6.25;;;0.85;;
49548;SDS011;35450;44.518;7.466;2023-04-25T17:01:43;5.10;;;0.88;;
49548;SDS011;35450;44.518;7.466;2023-04-25T17:04:47;4.70;;;0.90;;
49548;SDS011;35450;44.518;7.466;2023-04-25T17:07:51;2.20;;;0.88;;
49548;SDS011;35450;44.518;7.466;2023-04-25T17:10:55;9.10;;;1.77;;
49548;SDS011;35450;44.518;7.466;2023-04-25T17:13:59;2.47;;;0.90;;
49548;SDS011;35450;44.518;7.466;2023-04-25T17:17:03;5.03;;;0.75;;
49548;SDS011;35450;44.518;7.466;2023-04-25T17:20:07;6.18;;;1.20;;
49548;SDS011;35450;44.518;7.466;2023-04-25T17:23:18;4.57;;;0.63;;
49548;SDS011;35450;44.518;7.466;2023-04-25T17:26:22;5.00;;;0.73;;
49548;SDS011;35450;44.518;7.466;2023-04-25T17:29:26;1.85;;;0.60;;
49548;SDS011;35450;44.518;7.466;2023-04-25T17:32:30;1.48;;;0.82;;
49548;SDS011;35450;44.518;7.466;2023-04-25T17:35:34;6.22;;;0.77;;
49548;SDS011;35450;44.518;7.466;2023-04-25T17:38:39;3.75;;;2.33;;
49548;SDS011;35450;44.518;7.466;2023-04-25T17:41:42;2.78;;;1.40;;
49548;SDS011;35450;44.518;7.466;2023-04-25T17:44:46;4.07;;;1.55;;
49548;SDS011;35450;44.518;7.466;2023-04-25T17:47:50;16.83;;;2.15;;
49548;SDS011;35450;44.518;7.466;2023-04-25T17:50:54;5.70;;;1.45;;
49548;SDS011;35450;44.518;7.466;2023-04-25T17:53:58;4.97;;;0.98;;
49548;SDS011;35450;44.518;7.466;2023-04-25T17:57:02;3.45;;;0.90;;
49548;SDS011;35450;44.518;7.466;2023-04-25T18:00:07;4.45;;;0.68;;
49548;SDS011;35450;44.518;7.466;2023-04-25T18:03:16;3.30;;;0.60;;
49548;SDS011;35450;44.518;7.466;2023-04-25T18:06:20;1.50;;;0.50;;
49548;SDS011;35450;44.518;7.466;2023-04-25T18:09:24;2.47;;;0.70;;
49548;SDS011;35450;44.518;7.466;2023-04-25T18:12:28;5.35;;;1.00;;
49548;SDS011;35450;44.518;7.466;2023-04-25T18:15:32;3.00;;;0.70;;
49548;SDS011;35450;44.518;7.466;2023-04-25T18:18:36;4.45;;;0.70;;
49548;SDS011;35450;44.518;7.466;2023-04-25T18:21:40;3.47;;;0.60;;
49548;SDS011;35450;44.518;7.466;2023-04-25T18:24:48;2.10;;;0.68;;
49548;SDS011;35450;44.518;7.466;2023-04-25T18:27:53;2.53;;;0.50;;
49548;SDS011;35450;44.518;7.466;2023-04-25T18:30:57;5.32;;;0.77;;
49548;SDS011;35450;44.518;7.466;2023-04-25T18:34:01;1.75;;;0.68;;
49548;SDS011;35450;44.518;7.466;2023-04-25T18:37:05;1.25;;;0.70;;
49548;SDS011;35450;44.518;7.466;2023-04-25T18:40:09;4.03;;;0.65;;
49548;SDS011;35450;44.518;7.466;2023-04-25T18:43:16;4.05;;;0.90;;
49548;SDS011;35450;44.518;7.466;2023-04-25T18:46:19;9.48;;;1.58;;
49548;SDS011;35450;44.518;7.466;2023-04-25T18:49:26;4.13;;;1.48;;
49548;SDS011;35450;44.518;7.466;2023-04-25T18:52:30;9.10;;;3.25;;
49548;SDS011;35450;44.518;7.466;2023-04-25T18:55:34;13.18;;;2.83;;